createdAt,value
2023-04-11T03:45:29.193Z,15.30
2023-04-11T03:47:56.237Z,15.30
2023-04-11T03:50:23.277Z,15.30
2023-04-11T03:52:50.265Z,15.40
2023-04-11T03:55:17.187Z,15.40
2023-04-11T03:57:44.155Z,15.40
2023-04-11T04:00:12.586Z,15.50
2023-04-11T04:02:39.777Z,15.50
2023-04-11T04:05:07.395Z,15.50
2023-04-11T04:07:35.209Z,15.50
2023-04-11T04:10:02.099Z,15.50
2023-04-11T04:12:29.021Z,15.50
2023-04-11T04:14:56.020Z,15.60
2023-04-11T04:17:23.714Z,15.60
2023-04-11T04:19:51.571Z,15.50
2023-04-11T04:22:18.725Z,15.50
2023-04-11T04:24:48.810Z,15.50
2023-04-11T04:27:18.186Z,15.40
2023-04-11T04:29:48.845Z,15.30
2023-04-11T04:32:22.754Z,15.50
2023-04-11T04:34:50.635Z,15.50
2023-04-11T04:37:23.023Z,15.50
2023-04-11T04:39:56.481Z,15.50
2023-04-11T04:42:24.301Z,15.50
2023-04-11T04:44:51.857Z,15.40
2023-04-11T04:47:19.436Z,15.50
2023-04-11T04:49:46.359Z,15.30
2023-04-11T04:52:13.996Z,15.30
2023-04-11T04:54:41.042Z,15.30
2023-04-11T04:57:08.192Z,15.20
2023-04-11T04:59:35.385Z,15.20
2023-04-11T05:02:02.486Z,15.10
2023-04-11T05:04:30.353Z,15.10
2023-04-11T05:06:57.363Z,15.20
2023-04-11T05:09:24.257Z,15.20
2023-04-11T05:11:51.240Z,15.10
2023-04-11T05:14:18.301Z,15.10
2023-04-11T05:16:45.368Z,15.30
2023-04-11T05:19:12.344Z,15.30
2023-04-11T05:21:39.369Z,15.10
2023-04-11T05:24:06.265Z,15.00
2023-04-11T05:26:33.536Z,15.10
2023-04-11T05:29:01.322Z,15.10
2023-04-11T05:31:28.894Z,15.00
2023-04-11T05:33:56.291Z,15.00
2023-04-11T05:36:23.328Z,15.00
2023-04-11T05:38:50.481Z,15.10
2023-04-11T05:41:17.474Z,15.10
2023-04-11T05:43:44.359Z,15.10
2023-04-11T05:46:12.795Z,15.10
2023-04-11T05:48:39.841Z,15.10
2023-04-11T05:51:07.441Z,15.10
2023-04-11T05:53:34.459Z,14.90
2023-04-11T05:56:01.396Z,14.90
2023-04-11T05:58:29.826Z,14.90
2023-04-11T06:00:57.804Z,15.00
2023-04-11T06:03:24.916Z,15.10
2023-04-11T06:05:52.041Z,15.10
2023-04-11T06:08:19.096Z,15.10
2023-04-11T06:10:46.183Z,15.10
2023-04-11T06:13:13.123Z,15.00
2023-04-11T06:15:40.223Z,14.60
2023-04-11T06:18:07.222Z,14.00
2023-04-11T06:20:34.150Z,13.40
2023-04-11T06:23:01.690Z,13.10
2023-04-11T06:25:28.765Z,12.80
2023-04-11T06:27:55.871Z,12.80
2023-04-11T06:30:22.835Z,12.60
2023-04-11T06:32:49.767Z,12.60
2023-04-11T06:35:16.857Z,12.60
2023-04-11T06:37:45.888Z,12.50
2023-04-11T06:40:12.935Z,12.60
2023-04-11T06:42:39.919Z,12.70
2023-04-11T06:45:07.056Z,12.70
2023-04-11T06:47:34.064Z,12.80
2023-04-11T06:50:01.084Z,12.70
2023-04-11T06:52:28.415Z,12.80
2023-04-11T06:54:55.385Z,12.90
2023-04-11T06:57:22.411Z,12.90
2023-04-11T06:59:49.367Z,12.90
2023-04-11T07:02:16.824Z,12.70
2023-04-11T07:04:44.197Z,12.70
2023-04-11T07:07:11.344Z,12.50
2023-04-11T07:09:38.293Z,12.50
2023-04-11T07:12:05.608Z,12.50
2023-04-11T07:14:32.501Z,12.50
2023-04-11T07:16:59.686Z,12.50
2023-04-11T07:19:26.575Z,12.50
2023-04-11T07:21:53.484Z,12.40
2023-04-11T07:24:20.932Z,12.40
2023-04-11T07:26:50.361Z,12.40
2023-04-11T07:29:17.396Z,12.40
2023-04-11T07:31:45.049Z,12.40
2023-04-11T07:34:12.146Z,12.50
2023-04-11T07:36:39.493Z,12.50
2023-04-11T07:39:09.284Z,12.50
2023-04-11T07:41:37.176Z,12.50
2023-04-11T07:44:06.416Z,12.40
2023-04-11T07:46:33.909Z,12.50
2023-04-11T07:49:01.176Z,12.60
2023-04-11T07:51:28.127Z,12.60
2023-04-11T07:53:55.489Z,12.60
2023-04-11T07:56:22.703Z,12.60
2023-04-11T07:58:50.010Z,12.70
2023-04-11T08:01:23.879Z,12.80
2023-04-11T08:03:54.365Z,12.60
2023-04-11T08:06:21.963Z,12.60
2023-04-11T08:08:49.274Z,12.60
2023-04-11T08:11:16.422Z,12.70
2023-04-11T08:13:43.404Z,12.80
2023-04-11T08:16:11.943Z,12.80
2023-04-11T08:18:42.257Z,12.70
2023-04-11T08:21:10.813Z,12.90
2023-04-11T08:23:39.722Z,13.00
2023-04-11T08:26:07.192Z,13.00
2023-04-11T08:28:34.477Z,13.00
2023-04-11T08:31:02.754Z,13.10
2023-04-11T08:33:30.226Z,13.10
2023-04-11T08:35:57.120Z,13.30
2023-04-11T08:38:24.004Z,13.20
2023-04-11T08:40:51.419Z,13.20
2023-04-11T08:43:18.956Z,13.20
2023-04-11T08:45:45.963Z,13.10
2023-04-11T08:48:12.878Z,13.10
2023-04-11T08:50:40.878Z,13.00
2023-04-11T08:53:08.348Z,13.10
2023-04-11T08:55:35.946Z,13.10
2023-04-11T08:58:03.710Z,13.20
2023-04-11T09:00:32.320Z,13.00
2023-04-11T09:03:00.704Z,13.00
2023-04-11T09:05:40.989Z,12.90
2023-04-11T09:08:09.209Z,12.80
2023-04-11T09:10:36.656Z,12.80
2023-04-11T09:13:21.281Z,12.70
2023-04-11T09:15:48.541Z,12.70
2023-04-11T09:18:31.844Z,12.80
2023-04-11T09:20:59.922Z,12.80
2023-04-11T09:23:27.483Z,12.80
2023-04-11T09:25:54.462Z,12.70
2023-04-11T09:28:21.798Z,12.60
2023-04-11T09:30:52.624Z,12.70
2023-04-11T09:33:22.374Z,12.70
2023-04-11T09:35:53.122Z,12.80
2023-04-11T09:38:30.680Z,12.80
2023-04-11T09:40:58.016Z,12.80
2023-04-11T09:43:25.252Z,12.90
2023-04-11T09:46:07.967Z,13.00
2023-04-11T09:48:46.074Z,13.00
2023-04-11T09:51:27.654Z,13.10
2023-04-11T09:54:02.187Z,13.20
2023-04-11T09:56:30.689Z,13.30
2023-04-11T09:58:59.697Z,13.30
2023-04-11T10:01:27.114Z,13.40
2023-04-11T10:03:55.415Z,13.40
2023-04-11T10:06:33.675Z,13.40
2023-04-11T10:09:19.521Z,13.40
2023-04-11T10:11:46.531Z,13.40
2023-04-11T10:14:32.665Z,13.50
2023-04-11T10:17:22.191Z,13.50
2023-04-11T10:19:53.944Z,13.60
2023-04-11T10:22:39.464Z,13.50
2023-04-11T10:25:16.749Z,13.50
2023-04-11T10:27:50.473Z,13.50
2023-04-11T10:30:17.539Z,13.60
2023-04-11T10:33:23.350Z,13.70
2023-04-11T10:36:01.976Z,13.80
2023-04-11T10:38:35.243Z,14.00
2023-04-11T10:41:18.620Z,14.00
2023-04-11T10:43:46.148Z,14.10
2023-04-11T10:46:19.587Z,14.30
2023-04-11T10:48:56.447Z,14.50
2023-04-11T10:51:24.883Z,14.60
2023-04-11T10:53:52.479Z,14.70
2023-04-11T10:56:38.206Z,14.80
2023-04-11T10:59:05.147Z,14.80
2023-04-11T11:01:37.671Z,14.90
2023-04-11T11:04:10.341Z,14.90
2023-04-11T11:06:47.304Z,14.90
2023-04-11T11:09:23.494Z,14.90
2023-04-11T11:12:06.488Z,14.90
2023-04-11T11:14:33.498Z,15.00
2023-04-11T11:17:00.744Z,14.90
2023-04-11T11:19:27.858Z,14.90
2023-04-11T11:21:55.059Z,14.90
2023-04-11T11:24:25.858Z,14.90
2023-04-11T11:26:53.906Z,14.90
2023-04-11T11:29:37.834Z,15.00
2023-04-11T11:32:04.959Z,15.10
2023-04-11T11:34:32.785Z,15.20
2023-04-11T11:37:01.556Z,15.30
2023-04-11T11:39:30.341Z,15.10
2023-04-11T11:41:57.745Z,15.10
2023-04-11T11:44:28.639Z,15.10
2023-04-11T11:47:01.498Z,15.00
2023-04-11T11:49:42.707Z,15.10
2023-04-11T11:52:09.634Z,15.00
2023-04-11T11:54:43.193Z,15.10
2023-04-11T11:57:10.182Z,15.10
2023-04-11T11:59:37.447Z,15.10
2023-04-11T12:02:04.560Z,15.00
2023-04-11T12:04:32.323Z,15.00
2023-04-11T12:07:07.420Z,15.00
2023-04-11T12:09:34.394Z,14.90
2023-04-11T12:12:01.389Z,14.90
2023-04-11T12:14:29.448Z,14.90
2023-04-11T12:16:56.366Z,15.10
2023-04-11T12:19:23.437Z,15.00
2023-04-11T12:21:50.425Z,15.10
2023-04-11T12:24:17.373Z,15.30
2023-04-11T12:27:02.436Z,15.20
2023-04-11T12:29:32.856Z,15.30
2023-04-11T12:31:59.761Z,15.00
2023-04-11T12:34:26.890Z,14.90
2023-04-11T12:36:53.862Z,14.90
2023-04-11T12:39:20.987Z,14.90
2023-04-11T12:41:47.927Z,15.10
2023-04-11T12:44:14.837Z,15.00
2023-04-11T12:46:41.955Z,15.10
2023-04-11T12:49:08.946Z,15.10
2023-04-11T12:51:35.920Z,15.10
2023-04-11T12:54:03.781Z,15.10
2023-04-11T12:56:30.962Z,15.10
2023-04-11T12:58:58.094Z,15.10
2023-04-11T13:01:25.204Z,15.10
2023-04-11T13:03:52.708Z,15.20
2023-04-11T13:06:19.791Z,15.20
2023-04-11T13:08:47.011Z,15.20
2023-04-11T13:11:13.945Z,15.10
2023-04-11T13:13:40.828Z,15.00
2023-04-11T13:16:08.416Z,14.80
2023-04-11T13:18:35.381Z,14.90
2023-04-11T13:21:02.387Z,14.80
2023-04-11T13:23:29.274Z,14.80
2023-04-11T13:25:56.213Z,14.70
2023-04-11T13:28:23.593Z,14.70
2023-04-11T13:30:50.474Z,14.70
2023-04-11T13:33:17.436Z,14.90
2023-04-11T13:35:44.752Z,14.90
2023-04-11T13:38:12.636Z,14.80
2023-04-11T13:40:41.131Z,14.90
2023-04-11T13:43:08.237Z,15.10
2023-04-11T13:45:35.346Z,15.10
2023-04-11T13:48:02.581Z,15.00
2023-04-11T13:50:29.582Z,15.00
2023-04-11T13:52:57.661Z,15.00
2023-04-11T13:55:24.601Z,15.00
2023-04-11T13:57:51.511Z,15.00
2023-04-11T14:00:20.475Z,15.00
2023-04-11T14:02:48.343Z,14.70
2023-04-11T14:05:16.784Z,14.80
2023-04-11T14:07:43.668Z,15.00
2023-04-11T14:10:10.952Z,15.00
2023-04-11T14:12:38.139Z,14.90
2023-04-11T14:15:05.499Z,14.90
2023-04-11T14:17:32.480Z,15.00
2023-04-11T14:19:59.416Z,15.10
2023-04-11T14:22:27.154Z,15.10
2023-04-11T14:24:54.034Z,15.10
2023-04-11T14:27:21.023Z,15.00
2023-04-11T14:29:47.927Z,15.00
2023-04-11T14:32:14.880Z,15.00
2023-04-11T14:34:41.920Z,15.10
2023-04-11T14:37:08.865Z,15.20
2023-04-11T14:39:35.905Z,15.30
2023-04-11T14:42:02.966Z,15.30
2023-04-11T14:44:30.334Z,15.30
2023-04-11T14:46:57.263Z,15.30
2023-04-11T14:49:24.173Z,15.30
2023-04-11T14:51:51.414Z,15.50
2023-04-11T14:54:18.357Z,15.40
2023-04-11T14:56:45.299Z,15.40
2023-04-11T14:59:12.239Z,15.20
2023-04-11T15:01:39.378Z,14.80
2023-04-11T15:04:06.448Z,14.80
2023-04-11T15:06:33.514Z,14.90
2023-04-11T15:09:00.825Z,14.90
2023-04-11T15:11:28.010Z,15.00
2023-04-11T15:13:55.224Z,15.10
2023-04-11T15:16:22.435Z,15.20
2023-04-11T15:18:49.630Z,15.10
2023-04-11T15:21:16.693Z,15.00
2023-04-11T15:23:44.991Z,15.10
2023-04-11T15:26:11.898Z,15.20
2023-04-11T15:28:39.285Z,15.30
2023-04-11T15:31:07.559Z,15.20
2023-04-11T15:33:34.978Z,15.30
2023-04-11T15:36:02.226Z,15.30
2023-04-11T15:38:29.227Z,15.30
2023-04-11T15:40:58.348Z,15.30
2023-04-11T15:43:25.767Z,15.30
2023-04-11T15:45:53.483Z,15.20
2023-04-11T15:48:20.405Z,15.20
2023-04-11T15:50:47.313Z,15.20
2023-04-11T15:53:14.183Z,15.20
2023-04-11T15:55:41.797Z,15.20
2023-04-11T15:58:09.070Z,15.20
2023-04-11T16:00:36.603Z,15.30
2023-04-11T16:03:04.774Z,15.30
2023-04-11T16:05:32.578Z,15.40
2023-04-11T16:07:59.660Z,15.50
2023-04-11T16:10:26.688Z,15.50
2023-04-11T16:12:53.617Z,15.50
2023-04-11T16:15:20.670Z,15.50
2023-04-11T16:17:47.651Z,15.40
2023-04-11T16:20:18.525Z,15.40
2023-04-11T16:22:46.634Z,15.40
2023-04-11T16:25:15.750Z,15.60
2023-04-11T16:27:42.777Z,15.50
2023-04-11T16:30:09.953Z,15.60
2023-04-11T16:32:36.912Z,15.50
2023-04-11T16:35:03.922Z,15.50
2023-04-11T16:37:30.854Z,15.50
2023-04-11T16:39:57.945Z,15.50
2023-04-11T16:42:24.935Z,15.50
2023-04-11T16:44:51.927Z,15.50
2023-04-11T16:47:20.276Z,15.40
2023-04-11T16:49:47.377Z,15.50
2023-04-11T16:52:14.580Z,15.50
2023-04-11T16:54:41.515Z,15.40
2023-04-11T16:57:08.468Z,15.40
2023-04-11T16:59:35.631Z,15.40
2023-04-11T17:02:02.690Z,15.40
2023-04-11T17:04:29.816Z,15.40
2023-04-11T17:06:57.310Z,15.50
2023-04-11T17:09:24.367Z,15.30
2023-04-11T17:11:51.289Z,15.30
2023-04-11T17:14:18.199Z,15.20
2023-04-11T17:16:46.070Z,15.20
2023-04-11T17:19:13.440Z,15.30
2023-04-11T17:21:40.342Z,15.20
2023-04-11T17:24:07.306Z,15.10
2023-04-11T17:26:34.562Z,15.10
2023-04-11T17:29:01.856Z,15.10
2023-04-11T17:31:29.288Z,15.10
2023-04-11T17:33:56.483Z,15.00
2023-04-11T17:36:24.297Z,15.00
2023-04-11T17:38:54.194Z,15.10
2023-04-11T17:41:21.465Z,15.10
2023-04-11T17:43:48.450Z,15.00
2023-04-11T17:46:15.473Z,15.00
2023-04-11T17:48:42.490Z,15.00
2023-04-11T17:51:09.557Z,14.90
2023-04-11T17:53:36.469Z,14.90
2023-04-11T17:56:07.050Z,15.00
2023-04-11T17:58:34.078Z,15.00
2023-04-11T18:01:03.468Z,15.10
2023-04-11T18:03:35.322Z,15.10
2023-04-11T18:06:02.948Z,15.10
2023-04-11T18:08:46.756Z,15.10
2023-04-11T18:11:16.462Z,15.10
2023-04-11T18:13:43.823Z,15.10
2023-04-11T18:16:11.345Z,15.00
2023-04-11T18:18:38.483Z,15.00
2023-04-11T18:21:07.559Z,15.00
2023-04-11T18:23:35.085Z,15.00
2023-04-11T18:26:02.111Z,15.00
2023-04-11T18:28:29.216Z,15.00
2023-04-11T18:30:56.490Z,15.00
2023-04-11T18:33:23.755Z,15.00
2023-04-11T18:35:50.695Z,15.00
2023-04-11T18:38:17.825Z,15.00
2023-04-11T18:40:44.798Z,15.00
2023-04-11T18:43:11.790Z,14.90
2023-04-11T18:45:39.417Z,14.90
2023-04-11T18:48:07.308Z,14.90
2023-04-11T18:50:38.821Z,15.00
2023-04-11T18:53:08.899Z,14.90
2023-04-11T18:55:38.281Z,14.90
2023-04-11T18:58:08.888Z,14.80
2023-04-11T19:00:36.761Z,15.00
2023-04-11T19:03:05.045Z,14.80
2023-04-11T19:05:33.424Z,14.90
2023-04-11T19:08:00.739Z,14.80
2023-04-11T19:10:27.654Z,14.80
2023-04-11T19:12:54.678Z,14.70
2023-04-11T19:15:21.628Z,14.80
2023-04-11T19:17:48.581Z,14.70
2023-04-11T19:20:16.544Z,14.70
2023-04-11T19:22:43.717Z,14.70
2023-04-11T19:25:11.190Z,14.70
2023-04-11T19:27:40.143Z,14.60
2023-04-11T19:30:08.646Z,14.70
2023-04-11T19:32:38.449Z,14.70
2023-04-11T19:35:08.406Z,14.60
2023-04-11T19:37:36.217Z,14.60
2023-04-11T19:40:07.085Z,14.60
2023-04-11T19:42:36.868Z,14.60
2023-04-11T19:45:04.569Z,14.60
2023-04-11T19:47:32.168Z,14.60
2023-04-11T19:50:00.697Z,14.60
2023-04-11T19:52:28.432Z,14.50
2023-04-11T19:54:55.770Z,14.50
2023-04-11T19:57:23.057Z,14.50
2023-04-11T19:59:50.513Z,14.50
2023-04-11T20:02:17.594Z,14.50
2023-04-11T20:04:45.725Z,14.50
2023-04-11T20:07:12.972Z,14.50
2023-04-11T20:09:39.902Z,14.50
2023-04-11T20:12:07.212Z,14.50
2023-04-11T20:14:34.163Z,14.50
2023-04-11T20:17:01.321Z,14.50
2023-04-11T20:19:29.589Z,14.60
2023-04-11T20:21:56.725Z,14.50
2023-04-11T20:24:23.993Z,14.50
2023-04-11T20:26:51.283Z,14.50
2023-04-11T20:29:18.376Z,14.40
2023-04-11T20:31:45.331Z,14.40
2023-04-11T20:34:12.354Z,14.40
2023-04-11T20:36:39.503Z,14.40
2023-04-11T20:39:06.432Z,14.40
2023-04-11T20:41:33.981Z,14.50
2023-04-11T20:44:00.961Z,14.40
2023-04-11T20:46:29.563Z,14.40
2023-04-11T20:48:56.904Z,14.40
2023-04-11T20:51:24.928Z,14.30
2023-04-11T20:53:51.885Z,14.30
2023-04-11T20:56:18.786Z,14.30
2023-04-11T20:58:46.416Z,14.40
2023-04-11T21:01:13.468Z,14.40
2023-04-11T21:03:42.403Z,14.30
2023-04-11T21:06:10.172Z,14.40
2023-04-11T21:08:37.672Z,14.30
2023-04-11T21:11:05.510Z,14.30
2023-04-11T21:13:32.454Z,14.30
2023-04-11T21:15:59.494Z,14.30
2023-04-11T21:18:26.615Z,14.30
2023-04-11T21:20:53.549Z,14.30
2023-04-11T21:23:20.581Z,14.30
2023-04-11T21:25:47.512Z,14.30
2023-04-11T21:28:14.531Z,14.30
2023-04-11T21:30:42.266Z,14.30
2023-04-11T21:33:10.237Z,14.30
2023-04-11T21:35:37.196Z,14.20
2023-04-11T21:38:04.283Z,14.20
2023-04-11T21:40:31.225Z,14.20
2023-04-11T21:42:58.123Z,14.20
2023-04-11T21:45:25.195Z,14.10
2023-04-11T21:47:52.143Z,14.00
2023-04-11T21:50:19.077Z,14.00
2023-04-11T21:52:46.416Z,14.00
2023-04-11T21:55:14.424Z,13.90
2023-04-11T21:57:41.484Z,13.90
2023-04-11T22:00:10.664Z,13.90
2023-04-11T22:02:37.965Z,13.90
2023-04-11T22:05:07.248Z,13.90
2023-04-11T22:07:38.692Z,13.80
2023-04-11T22:10:09.554Z,13.80
2023-04-11T22:12:36.683Z,13.70
2023-04-11T22:15:04.094Z,13.60
2023-04-11T22:17:31.503Z,13.60
2023-04-11T22:19:58.489Z,13.60
2023-04-11T22:22:30.063Z,13.60
2023-04-11T22:24:59.869Z,13.60
2023-04-11T22:27:27.289Z,13.60
2023-04-11T22:29:57.104Z,13.80
2023-04-11T22:32:24.092Z,13.70
2023-04-11T22:34:51.208Z,13.70
2023-04-11T22:37:18.275Z,13.70
2023-04-11T22:39:45.541Z,13.70
2023-04-11T22:42:12.460Z,13.70
2023-04-11T22:44:39.445Z,13.70
2023-04-11T22:47:08.009Z,13.70
2023-04-11T22:49:41.026Z,13.60
2023-04-11T22:52:15.100Z,13.70
2023-04-11T22:54:42.549Z,13.60
2023-04-11T22:57:09.866Z,13.60
2023-04-11T22:59:36.843Z,13.60
